sensor_id;sensor_type;location;lat;lon;timestamp;P1;durP1;ratioP1;P2;durP2;ratioP2
50605;SDS011;36557;53.572;10.170;2023-11-21T00:00:12;7.75;;;4.15;;
50605;SDS011;36557;53.572;10.170;2023-11-21T00:02:39;7.85;;;4.22;;
50605;SDS011;36557;53.572;10.170;2023-11-21T00:05:09;6.78;;;3.80;;
50605;SDS011;36557;53.572;10.170;2023-11-21T00:07:36;6.85;;;3.80;;
50605;SDS011;36557;53.572;10.170;2023-11-21T00:10:03;7.07;;;4.20;;
50605;SDS011;36557;53.572;10.170;2023-11-21T00:12:30;7.53;;;4.60;;
50605;SDS011;36557;53.572;10.170;2023-11-21T00:14:57;7.35;;;4.18;;
50605;SDS011;36557;53.572;10.170;2023-11-21T00:17:23;9.00;;;4.68;;
50605;SDS011;36557;53.572;10.170;2023-11-21T00:19:49;8.13;;;4.22;;
50605;SDS011;36557;53.572;10.170;2023-11-21T00:22:17;6.90;;;4.05;;
50605;SDS011;36557;53.572;10.170;2023-11-21T00:24:43;9.52;;;4.63;;
50605;SDS011;36557;53.572;10.170;2023-11-21T00:27:09;7.38;;;4.97;;
50605;SDS011;36557;53.572;10.170;2023-11-21T00:29:35;7.25;;;3.80;;
50605;SDS011;36557;53.572;10.170;2023-11-21T00:32:02;7.43;;;3.40;;
50605;SDS011;36557;53.572;10.170;2023-11-21T00:34:28;6.43;;;4.00;;
50605;SDS011;36557;53.572;10.170;2023-11-21T00:36:54;5.68;;;3.65;;
50605;SDS011;36557;53.572;10.170;2023-11-21T00:39:20;8.32;;;4.00;;
50605;SDS011;36557;53.572;10.170;2023-11-21T00:41:46;6.63;;;4.18;;
50605;SDS011;36557;53.572;10.170;2023-11-21T00:44:13;7.93;;;3.95;;
50605;SDS011;36557;53.572;10.170;2023-11-21T00:46:39;7.45;;;4.38;;
50605;SDS011;36557;53.572;10.170;2023-11-21T00:49:05;7.43;;;4.63;;
50605;SDS011;36557;53.572;10.170;2023-11-21T00:51:32;10.57;;;5.63;;
50605;SDS011;36557;53.572;10.170;2023-11-21T00:53:58;9.13;;;5.40;;
50605;SDS011;36557;53.572;10.170;2023-11-21T00:56:25;9.88;;;5.18;;
50605;SDS011;36557;53.572;10.170;2023-11-21T00:58:51;11.82;;;5.60;;
50605;SDS011;36557;53.572;10.170;2023-11-21T01:01:20;8.90;;;5.00;;
50605;SDS011;36557;53.572;10.170;2023-11-21T01:03:48;10.25;;;4.80;;
50605;SDS011;36557;53.572;10.170;2023-11-21T01:06:14;9.90;;;5.22;;
50605;SDS011;36557;53.572;10.170;2023-11-21T01:08:40;11.45;;;4.90;;
50605;SDS011;36557;53.572;10.170;2023-11-21T01:11:06;9.75;;;5.60;;
50605;SDS011;36557;53.572;10.170;2023-11-21T01:13:33;8.98;;;4.93;;
50605;SDS011;36557;53.572;10.170;2023-11-21T01:16:00;12.23;;;6.30;;
50605;SDS011;36557;53.572;10.170;2023-11-21T01:18:26;11.75;;;5.63;;
50605;SDS011;36557;53.572;10.170;2023-11-21T01:20:54;12.73;;;5.70;;
50605;SDS011;36557;53.572;10.170;2023-11-21T01:23:20;9.90;;;5.45;;
50605;SDS011;36557;53.572;10.170;2023-11-21T01:25:46;9.73;;;5.40;;
50605;SDS011;36557;53.572;10.170;2023-11-21T01:28:12;11.25;;;6.07;;
50605;SDS011;36557;53.572;10.170;2023-11-21T01:30:38;11.60;;;5.30;;
50605;SDS011;36557;53.572;10.170;2023-11-21T01:33:04;10.43;;;5.53;;
50605;SDS011;36557;53.572;10.170;2023-11-21T01:35:30;9.05;;;4.38;;
50605;SDS011;36557;53.572;10.170;2023-11-21T01:37:56;7.53;;;4.03;;
50605;SDS011;36557;53.572;10.170;2023-11-21T01:40:22;6.85;;;3.85;;
50605;SDS011;36557;53.572;10.170;2023-11-21T01:42:49;7.35;;;3.70;;
50605;SDS011;36557;53.572;10.170;2023-11-21T01:45:15;7.70;;;4.13;;
50605;SDS011;36557;53.572;10.170;2023-11-21T01:47:41;6.57;;;3.38;;
50605;SDS011;36557;53.572;10.170;2023-11-21T01:50:08;7.60;;;4.03;;
50605;SDS011;36557;53.572;10.170;2023-11-21T01:52:37;9.05;;;4.40;;
50605;SDS011;36557;53.572;10.170;2023-11-21T01:55:04;6.13;;;3.65;;
50605;SDS011;36557;53.572;10.170;2023-11-21T01:57:32;7.93;;;4.22;;
50605;SDS011;36557;53.572;10.170;2023-11-21T01:59:58;8.55;;;4.00;;
50605;SDS011;36557;53.572;10.170;2023-11-21T02:02:24;7.75;;;3.63;;
50605;SDS011;36557;53.572;10.170;2023-11-21T02:04:50;8.52;;;3.78;;
50605;SDS011;36557;53.572;10.170;2023-11-21T02:07:16;7.15;;;4.10;;
50605;SDS011;36557;53.572;10.170;2023-11-21T02:09:44;6.82;;;3.80;;
50605;SDS011;36557;53.572;10.170;2023-11-21T02:12:10;6.90;;;3.60;;
50605;SDS011;36557;53.572;10.170;2023-11-21T02:14:36;6.15;;;3.40;;
50605;SDS011;36557;53.572;10.170;2023-11-21T02:17:02;5.65;;;3.47;;
50605;SDS011;36557;53.572;10.170;2023-11-21T02:19:29;6.60;;;3.83;;
50605;SDS011;36557;53.572;10.170;2023-11-21T02:21:58;5.95;;;3.80;;
50605;SDS011;36557;53.572;10.170;2023-11-21T02:24:28;6.00;;;3.70;;
50605;SDS011;36557;53.572;10.170;2023-11-21T02:26:54;5.70;;;3.60;;
50605;SDS011;36557;53.572;10.170;2023-11-21T02:29:21;6.38;;;3.63;;
50605;SDS011;36557;53.572;10.170;2023-11-21T02:31:52;6.40;;;3.55;;
50605;SDS011;36557;53.572;10.170;2023-11-21T02:34:19;8.50;;;3.50;;
50605;SDS011;36557;53.572;10.170;2023-11-21T02:36:46;6.43;;;3.67;;
50605;SDS011;36557;53.572;10.170;2023-11-21T02:39:15;6.00;;;3.53;;
50605;SDS011;36557;53.572;10.170;2023-11-21T02:41:47;8.57;;;4.00;;
50605;SDS011;36557;53.572;10.170;2023-11-21T02:44:13;7.78;;;3.72;;
50605;SDS011;36557;53.572;10.170;2023-11-21T02:46:39;6.75;;;3.78;;
50605;SDS011;36557;53.572;10.170;2023-11-21T02:49:05;6.15;;;3.80;;
50605;SDS011;36557;53.572;10.170;2023-11-21T02:51:34;7.30;;;3.55;;
50605;SDS011;36557;53.572;10.170;2023-11-21T02:54:00;7.30;;;3.72;;
50605;SDS011;36557;53.572;10.170;2023-11-21T02:56:30;7.05;;;4.20;;
50605;SDS011;36557;53.572;10.170;2023-11-21T02:58:56;7.82;;;3.65;;
50605;SDS011;36557;53.572;10.170;2023-11-21T03:01:22;6.70;;;3.72;;
50605;SDS011;36557;53.572;10.170;2023-11-21T03:03:52;7.13;;;3.55;;
50605;SDS011;36557;53.572;10.170;2023-11-21T03:06:22;6.22;;;3.92;;
50605;SDS011;36557;53.572;10.170;2023-11-21T03:08:48;7.13;;;3.90;;
50605;SDS011;36557;53.572;10.170;2023-11-21T03:11:14;7.03;;;3.70;;
50605;SDS011;36557;53.572;10.170;2023-11-21T03:13:41;6.45;;;3.92;;
50605;SDS011;36557;53.572;10.170;2023-11-21T03:16:10;7.13;;;4.13;;
50605;SDS011;36557;53.572;10.170;2023-11-21T03:18:39;6.05;;;4.10;;
50605;SDS011;36557;53.572;10.170;2023-11-21T03:21:06;6.15;;;3.65;;
50605;SDS011;36557;53.572;10.170;2023-11-21T03:23:36;8.77;;;4.00;;
50605;SDS011;36557;53.572;10.170;2023-11-21T03:26:02;6.93;;;3.75;;
50605;SDS011;36557;53.572;10.170;2023-11-21T03:28:28;6.35;;;3.70;;
50605;SDS011;36557;53.572;10.170;2023-11-21T03:30:57;7.57;;;3.67;;
50605;SDS011;36557;53.572;10.170;2023-11-21T03:33:23;5.68;;;3.22;;
50605;SDS011;36557;53.572;10.170;2023-11-21T03:35:50;7.22;;;3.63;;
50605;SDS011;36557;53.572;10.170;2023-11-21T03:38:17;6.35;;;3.45;;
50605;SDS011;36557;53.572;10.170;2023-11-21T03:40:44;5.30;;;3.28;;
50605;SDS011;36557;53.572;10.170;2023-11-21T03:43:10;9.10;;;3.45;;
50605;SDS011;36557;53.572;10.170;2023-11-21T03:45:36;6.25;;;3.72;;
50605;SDS011;36557;53.572;10.170;2023-11-21T03:48:03;5.15;;;3.20;;
50605;SDS011;36557;53.572;10.170;2023-11-21T03:50:29;7.22;;;3.85;;
50605;SDS011;36557;53.572;10.170;2023-11-21T03:52:55;5.88;;;3.40;;
50605;SDS011;36557;53.572;10.170;2023-11-21T03:55:21;5.63;;;3.28;;
50605;SDS011;36557;53.572;10.170;2023-11-21T03:57:49;8.32;;;3.50;;
50605;SDS011;36557;53.572;10.170;2023-11-21T04:00:16;7.75;;;3.80;;
50605;SDS011;36557;53.572;10.170;2023-11-21T04:02:42;6.47;;;3.72;;
50605;SDS011;36557;53.572;10.170;2023-11-21T04:05:08;8.00;;;3.88;;
50605;SDS011;36557;53.572;10.170;2023-11-21T04:07:35;7.53;;;3.80;;
50605;SDS011;36557;53.572;10.170;2023-11-21T04:10:03;5.88;;;3.88;;
50605;SDS011;36557;53.572;10.170;2023-11-21T04:12:32;6.07;;;3.22;;
50605;SDS011;36557;53.572;10.170;2023-11-21T04:14:58;6.35;;;3.42;;
50605;SDS011;36557;53.572;10.170;2023-11-21T04:17:24;6.55;;;3.90;;
50605;SDS011;36557;53.572;10.170;2023-11-21T04:19:50;5.47;;;3.60;;
50605;SDS011;36557;53.572;10.170;2023-11-21T04:22:16;6.72;;;3.90;;
50605;SDS011;36557;53.572;10.170;2023-11-21T04:24:42;6.00;;;3.80;;
50605;SDS011;36557;53.572;10.170;2023-11-21T04:27:08;6.63;;;3.97;;
50605;SDS011;36557;53.572;10.170;2023-11-21T04:29:34;6.70;;;3.95;;
50605;SDS011;36557;53.572;10.170;2023-11-21T04:32:01;7.43;;;3.97;;
50605;SDS011;36557;53.572;10.170;2023-11-21T04:34:27;7.80;;;4.68;;
50605;SDS011;36557;53.572;10.170;2023-11-21T04:36:56;7.30;;;4.40;;
50605;SDS011;36557;53.572;10.170;2023-11-21T04:39:22;7.63;;;4.85;;
50605;SDS011;36557;53.572;10.170;2023-11-21T04:41:48;7.25;;;4.55;;
50605;SDS011;36557;53.572;10.170;2023-11-21T04:44:15;9.05;;;4.25;;
50605;SDS011;36557;53.572;10.170;2023-11-21T04:46:42;7.78;;;4.70;;
50605;SDS011;36557;53.572;10.170;2023-11-21T04:49:08;7.93;;;4.90;;
50605;SDS011;36557;53.572;10.170;2023-11-21T04:51:35;8.55;;;4.45;;
50605;SDS011;36557;53.572;10.170;2023-11-21T04:54:02;7.15;;;4.30;;
50605;SDS011;36557;53.572;10.170;2023-11-21T04:56:28;6.22;;;3.70;;
50605;SDS011;36557;53.572;10.170;2023-11-21T04:58:54;8.70;;;4.57;;
50605;SDS011;36557;53.572;10.170;2023-11-21T05:01:20;6.75;;;4.07;;
50605;SDS011;36557;53.572;10.170;2023-11-21T05:03:46;9.50;;;4.30;;
50605;SDS011;36557;53.572;10.170;2023-11-21T05:06:13;7.93;;;4.55;;
50605;SDS011;36557;53.572;10.170;2023-11-21T05:08:40;6.68;;;4.20;;
50605;SDS011;36557;53.572;10.170;2023-11-21T05:11:07;8.05;;;4.40;;
50605;SDS011;36557;53.572;10.170;2023-11-21T05:13:35;7.72;;;3.88;;
50605;SDS011;36557;53.572;10.170;2023-11-21T05:16:02;7.68;;;4.38;;
50605;SDS011;36557;53.572;10.170;2023-11-21T05:18:34;7.50;;;4.22;;
50605;SDS011;36557;53.572;10.170;2023-11-21T05:21:00;8.88;;;4.10;;
50605;SDS011;36557;53.572;10.170;2023-11-21T05:23:26;6.50;;;4.00;;
50605;SDS011;36557;53.572;10.170;2023-11-21T05:25:53;6.60;;;4.43;;
50605;SDS011;36557;53.572;10.170;2023-11-21T05:28:19;7.72;;;3.90;;
50605;SDS011;36557;53.572;10.170;2023-11-21T05:30:45;6.43;;;4.03;;
50605;SDS011;36557;53.572;10.170;2023-11-21T05:33:11;6.72;;;3.70;;
50605;SDS011;36557;53.572;10.170;2023-11-21T05:35:37;8.23;;;4.13;;
50605;SDS011;36557;53.572;10.170;2023-11-21T05:38:03;7.40;;;4.10;;
50605;SDS011;36557;53.572;10.170;2023-11-21T05:40:30;7.95;;;4.30;;
50605;SDS011;36557;53.572;10.170;2023-11-21T05:42:56;7.05;;;3.80;;
50605;SDS011;36557;53.572;10.170;2023-11-21T05:45:22;7.88;;;4.38;;
50605;SDS011;36557;53.572;10.170;2023-11-21T05:47:48;6.15;;;3.95;;
50605;SDS011;36557;53.572;10.170;2023-11-21T05:50:15;6.68;;;4.03;;
50605;SDS011;36557;53.572;10.170;2023-11-21T05:52:45;6.32;;;3.92;;
50605;SDS011;36557;53.572;10.170;2023-11-21T05:55:12;6.68;;;3.80;;
50605;SDS011;36557;53.572;10.170;2023-11-21T05:57:38;8.90;;;4.68;;
50605;SDS011;36557;53.572;10.170;2023-11-21T06:00:22;8.32;;;4.32;;
50605;SDS011;36557;53.572;10.170;2023-11-21T06:02:50;7.25;;;4.15;;
50605;SDS011;36557;53.572;10.170;2023-11-21T06:05:18;7.57;;;3.88;;
50605;SDS011;36557;53.572;10.170;2023-11-21T06:07:44;7.53;;;4.10;;
50605;SDS011;36557;53.572;10.170;2023-11-21T06:10:11;8.27;;;4.35;;
50605;SDS011;36557;53.572;10.170;2023-11-21T06:12:39;6.32;;;4.07;;
50605;SDS011;36557;53.572;10.170;2023-11-21T06:15:08;8.02;;;4.15;;
50605;SDS011;36557;53.572;10.170;2023-11-21T06:17:35;6.95;;;4.40;;
50605;SDS011;36557;53.572;10.170;2023-11-21T06:20:01;6.75;;;3.88;;
50605;SDS011;36557;53.572;10.170;2023-11-21T06:22:34;7.70;;;4.32;;
50605;SDS011;36557;53.572;10.170;2023-11-21T06:25:00;7.30;;;4.55;;
50605;SDS011;36557;53.572;10.170;2023-11-21T06:27:28;7.03;;;4.50;;
50605;SDS011;36557;53.572;10.170;2023-11-21T06:29:54;8.43;;;4.40;;
50605;SDS011;36557;53.572;10.170;2023-11-21T06:32:21;8.07;;;4.40;;
50605;SDS011;36557;53.572;10.170;2023-11-21T06:34:47;8.90;;;5.07;;
50605;SDS011;36557;53.572;10.170;2023-11-21T06:37:14;7.28;;;4.70;;
50605;SDS011;36557;53.572;10.170;2023-11-21T06:39:41;8.20;;;4.72;;
50605;SDS011;36557;53.572;10.170;2023-11-21T06:42:08;7.35;;;4.53;;
50605;SDS011;36557;53.572;10.170;2023-11-21T06:44:34;6.35;;;4.55;;
50605;SDS011;36557;53.572;10.170;2023-11-21T06:47:01;8.73;;;4.50;;
50605;SDS011;36557;53.572;10.170;2023-11-21T06:49:27;7.80;;;4.68;;
50605;SDS011;36557;53.572;10.170;2023-11-21T06:51:53;7.50;;;4.40;;
50605;SDS011;36557;53.572;10.170;2023-11-21T06:54:20;9.07;;;4.68;;
50605;SDS011;36557;53.572;10.170;2023-11-21T06:56:47;12.02;;;5.07;;
50605;SDS011;36557;53.572;10.170;2023-11-21T06:59:13;11.13;;;4.75;;
50605;SDS011;36557;53.572;10.170;2023-11-21T07:01:39;12.50;;;4.65;;
50605;SDS011;36557;53.572;10.170;2023-11-21T07:04:06;10.60;;;4.60;;
50605;SDS011;36557;53.572;10.170;2023-11-21T07:06:34;10.77;;;4.75;;
50605;SDS011;36557;53.572;10.170;2023-11-21T07:09:00;10.27;;;4.65;;
50605;SDS011;36557;53.572;10.170;2023-11-21T07:11:28;8.68;;;4.80;;
50605;SDS011;36557;53.572;10.170;2023-11-21T07:13:54;9.55;;;4.72;;
50605;SDS011;36557;53.572;10.170;2023-11-21T07:16:20;8.32;;;4.63;;
50605;SDS011;36557;53.572;10.170;2023-11-21T07:18:47;8.98;;;4.50;;
50605;SDS011;36557;53.572;10.170;2023-11-21T07:21:14;9.50;;;4.68;;
50605;SDS011;36557;53.572;10.170;2023-11-21T07:23:41;6.47;;;4.55;;
50605;SDS011;36557;53.572;10.170;2023-11-21T07:26:07;8.77;;;4.28;;
50605;SDS011;36557;53.572;10.170;2023-11-21T07:28:35;7.10;;;4.32;;
50605;SDS011;36557;53.572;10.170;2023-11-21T07:31:01;6.47;;;4.22;;
50605;SDS011;36557;53.572;10.170;2023-11-21T07:33:28;6.57;;;4.40;;
50605;SDS011;36557;53.572;10.170;2023-11-21T07:35:54;9.57;;;4.70;;
50605;SDS011;36557;53.572;10.170;2023-11-21T07:38:20;7.95;;;4.22;;
50605;SDS011;36557;53.572;10.170;2023-11-21T07:40:46;6.22;;;3.70;;
50605;SDS011;36557;53.572;10.170;2023-11-21T07:43:12;5.82;;;3.92;;
50605;SDS011;36557;53.572;10.170;2023-11-21T07:45:38;6.25;;;3.67;;
50605;SDS011;36557;53.572;10.170;2023-11-21T07:48:05;6.47;;;3.40;;
50605;SDS011;36557;53.572;10.170;2023-11-21T07:50:31;8.02;;;4.00;;
50605;SDS011;36557;53.572;10.170;2023-11-21T07:52:57;6.53;;;3.67;;
50605;SDS011;36557;53.572;10.170;2023-11-21T07:55:23;6.82;;;4.18;;
50605;SDS011;36557;53.572;10.170;2023-11-21T07:57:50;5.75;;;3.63;;
50605;SDS011;36557;53.572;10.170;2023-11-21T08:00:15;6.03;;;3.72;;
50605;SDS011;36557;53.572;10.170;2023-11-21T08:02:41;6.47;;;3.30;;
50605;SDS011;36557;53.572;10.170;2023-11-21T08:05:08;6.85;;;4.18;;
50605;SDS011;36557;53.572;10.170;2023-11-21T08:07:34;6.10;;;4.00;;
50605;SDS011;36557;53.572;10.170;2023-11-21T08:10:00;7.82;;;3.80;;
50605;SDS011;36557;53.572;10.170;2023-11-21T08:12:25;8.60;;;3.72;;
50605;SDS011;36557;53.572;10.170;2023-11-21T08:14:52;7.00;;;3.50;;
50605;SDS011;36557;53.572;10.170;2023-11-21T08:17:18;5.32;;;3.28;;
50605;SDS011;36557;53.572;10.170;2023-11-21T08:19:45;5.32;;;3.10;;
50605;SDS011;36557;53.572;10.170;2023-11-21T08:22:14;9.82;;;4.07;;
50605;SDS011;36557;53.572;10.170;2023-11-21T08:24:42;5.32;;;3.33;;
50605;SDS011;36557;53.572;10.170;2023-11-21T08:27:08;5.97;;;3.30;;
50605;SDS011;36557;53.572;10.170;2023-11-21T08:29:34;5.50;;;3.42;;
50605;SDS011;36557;53.572;10.170;2023-11-21T08:32:01;5.32;;;3.30;;
50605;SDS011;36557;53.572;10.170;2023-11-21T08:34:27;7.00;;;3.03;;
50605;SDS011;36557;53.572;10.170;2023-11-21T08:36:54;5.25;;;3.10;;
50605;SDS011;36557;53.572;10.170;2023-11-21T08:39:20;4.65;;;3.20;;
50605;SDS011;36557;53.572;10.170;2023-11-21T08:41:49;4.78;;;2.88;;
50605;SDS011;36557;53.572;10.170;2023-11-21T08:44:16;5.10;;;2.90;;
50605;SDS011;36557;53.572;10.170;2023-11-21T08:46:43;3.83;;;2.70;;
50605;SDS011;36557;53.572;10.170;2023-11-21T08:49:11;4.45;;;2.67;;
50605;SDS011;36557;53.572;10.170;2023-11-21T08:51:37;4.90;;;2.80;;
50605;SDS011;36557;53.572;10.170;2023-11-21T08:54:03;4.88;;;3.17;;
50605;SDS011;36557;53.572;10.170;2023-11-21T08:56:32;4.35;;;2.88;;
50605;SDS011;36557;53.572;10.170;2023-11-21T08:59:01;3.95;;;2.40;;
50605;SDS011;36557;53.572;10.170;2023-11-21T09:01:28;4.68;;;2.60;;
50605;SDS011;36557;53.572;10.170;2023-11-21T09:03:57;3.55;;;2.20;;
50605;SDS011;36557;53.572;10.170;2023-11-21T09:06:23;3.92;;;2.33;;
50605;SDS011;36557;53.572;10.170;2023-11-21T09:08:49;4.20;;;2.30;;
50605;SDS011;36557;53.572;10.170;2023-11-21T09:11:15;4.50;;;2.58;;
50605;SDS011;36557;53.572;10.170;2023-11-21T09:13:42;4.30;;;2.30;;
50605;SDS011;36557;53.572;10.170;2023-11-21T09:16:08;5.20;;;2.30;;
50605;SDS011;36557;53.572;10.170;2023-11-21T09:18:33;3.67;;;2.30;;
50605;SDS011;36557;53.572;10.170;2023-11-21T09:20:59;4.85;;;2.63;;
50605;SDS011;36557;53.572;10.170;2023-11-21T09:23:25;4.40;;;2.60;;
50605;SDS011;36557;53.572;10.170;2023-11-21T09:25:50;3.90;;;2.50;;
50605;SDS011;36557;53.572;10.170;2023-11-21T09:28:17;5.80;;;2.10;;
50605;SDS011;36557;53.572;10.170;2023-11-21T09:30:43;3.83;;;2.30;;
50605;SDS011;36557;53.572;10.170;2023-11-21T09:33:09;4.65;;;2.50;;
50605;SDS011;36557;53.572;10.170;2023-11-21T09:35:37;5.05;;;2.20;;
50605;SDS011;36557;53.572;10.170;2023-11-21T09:38:03;4.18;;;2.08;;
50605;SDS011;36557;53.572;10.170;2023-11-21T09:40:35;6.20;;;2.20;;
50605;SDS011;36557;53.572;10.170;2023-11-21T09:43:02;4.25;;;2.10;;
50605;SDS011;36557;53.572;10.170;2023-11-21T09:45:41;2.90;;;2.13;;
50605;SDS011;36557;53.572;10.170;2023-11-21T09:48:12;3.75;;;2.17;;
50605;SDS011;36557;53.572;10.170;2023-11-21T09:50:40;4.65;;;2.05;;
50605;SDS011;36557;53.572;10.170;2023-11-21T09:53:20;3.78;;;2.10;;
50605;SDS011;36557;53.572;10.170;2023-11-21T09:55:49;3.10;;;2.10;;
50605;SDS011;36557;53.572;10.170;2023-11-21T09:58:17;2.75;;;2.03;;
50605;SDS011;36557;53.572;10.170;2023-11-21T10:00:47;6.15;;;2.60;;
50605;SDS011;36557;53.572;10.170;2023-11-21T10:03:14;3.17;;;2.00;;
50605;SDS011;36557;53.572;10.170;2023-11-21T10:05:44;3.90;;;2.05;;
50605;SDS011;36557;53.572;10.170;2023-11-21T10:08:15;5.13;;;2.13;;
50605;SDS011;36557;53.572;10.170;2023-11-21T10:10:44;4.00;;;2.33;;
50605;SDS011;36557;53.572;10.170;2023-11-21T10:13:13;5.18;;;2.28;;
50605;SDS011;36557;53.572;10.170;2023-11-21T10:15:42;6.22;;;2.50;;
50605;SDS011;36557;53.572;10.170;2023-11-21T10:18:13;4.00;;;2.35;;
50605;SDS011;36557;53.572;10.170;2023-11-21T10:20:40;4.50;;;2.13;;
50605;SDS011;36557;53.572;10.170;2023-11-21T10:23:11;5.80;;;2.50;;
50605;SDS011;36557;53.572;10.170;2023-11-21T10:25:38;5.53;;;2.40;;
50605;SDS011;36557;53.572;10.170;2023-11-21T10:28:04;3.20;;;2.10;;
50605;SDS011;36557;53.572;10.170;2023-11-21T10:30:35;2.95;;;2.10;;
50605;SDS011;36557;53.572;10.170;2023-11-21T10:33:03;3.88;;;2.17;;
50605;SDS011;36557;53.572;10.170;2023-11-21T10:38:26;3.28;;;2.03;;
50605;SDS011;36557;53.572;10.170;2023-11-21T10:40:53;3.92;;;2.40;;
50605;SDS011;36557;53.572;10.170;2023-11-21T10:43:20;4.68;;;1.92;;
50605;SDS011;36557;53.572;10.170;2023-11-21T10:45:50;3.72;;;1.90;;
50605;SDS011;36557;53.572;10.170;2023-11-21T10:48:16;3.10;;;1.80;;
50605;SDS011;36557;53.572;10.170;2023-11-21T10:50:45;4.38;;;1.80;;
50605;SDS011;36557;53.572;10.170;2023-11-21T10:53:11;2.67;;;1.63;;
50605;SDS011;36557;53.572;10.170;2023-11-21T10:55:38;3.03;;;1.92;;
50605;SDS011;36557;53.572;10.170;2023-11-21T10:58:04;2.40;;;1.60;;
50605;SDS011;36557;53.572;10.170;2023-11-21T11:00:31;4.18;;;2.10;;
50605;SDS011;36557;53.572;10.170;2023-11-21T11:02:58;2.83;;;1.85;;
50605;SDS011;36557;53.572;10.170;2023-11-21T11:05:26;2.70;;;1.90;;
50605;SDS011;36557;53.572;10.170;2023-11-21T11:10:33;3.65;;;2.15;;
50605;SDS011;36557;53.572;10.170;2023-11-21T11:12:59;4.45;;;2.40;;
50605;SDS011;36557;53.572;10.170;2023-11-21T11:15:26;2.30;;;1.55;;
50605;SDS011;36557;53.572;10.170;2023-11-21T11:17:53;2.55;;;1.60;;
50605;SDS011;36557;53.572;10.170;2023-11-21T11:20:22;2.72;;;1.75;;
50605;SDS011;36557;53.572;10.170;2023-11-21T11:28:21;3.03;;;2.13;;
50605;SDS011;36557;53.572;10.170;2023-11-21T11:36:24;2.45;;;1.50;;
50605;SDS011;36557;53.572;10.170;2023-11-21T11:38:55;3.55;;;1.80;;
50605;SDS011;36557;53.572;10.170;2023-11-21T11:41:28;3.20;;;2.00;;
50605;SDS011;36557;53.572;10.170;2023-11-21T11:43:58;3.10;;;1.90;;
50605;SDS011;36557;53.572;10.170;2023-11-21T11:46:43;3.38;;;1.95;;
50605;SDS011;36557;53.572;10.170;2023-11-21T11:49:25;3.40;;;1.90;;
50605;SDS011;36557;53.572;10.170;2023-11-21T11:54:55;5.40;;;1.95;;
50605;SDS011;36557;53.572;10.170;2023-11-21T11:57:24;3.00;;;2.00;;
50605;SDS011;36557;53.572;10.170;2023-11-21T12:02:37;3.92;;;2.00;;
50605;SDS011;36557;53.572;10.170;2023-11-21T12:05:11;3.42;;;1.73;;
50605;SDS011;36557;53.572;10.170;2023-11-21T12:10:13;6.00;;;1.90;;
50605;SDS011;36557;53.572;10.170;2023-11-21T12:12:43;3.63;;;2.00;;
50605;SDS011;36557;53.572;10.170;2023-11-21T12:15:13;4.85;;;2.42;;
50605;SDS011;36557;53.572;10.170;2023-11-21T12:17:42;3.45;;;2.15;;
50605;SDS011;36557;53.572;10.170;2023-11-21T12:20:09;4.03;;;2.03;;
50605;SDS011;36557;53.572;10.170;2023-11-21T12:22:45;4.65;;;1.83;;
50605;SDS011;36557;53.572;10.170;2023-11-21T12:27:54;2.60;;;1.90;;
50605;SDS011;36557;53.572;10.170;2023-11-21T12:30:21;7.65;;;1.80;;
50605;SDS011;36557;53.572;10.170;2023-11-21T12:32:52;3.67;;;1.67;;
50605;SDS011;36557;53.572;10.170;2023-11-21T12:35:19;3.90;;;1.70;;
50605;SDS011;36557;53.572;10.170;2023-11-21T12:37:47;4.57;;;1.60;;
50605;SDS011;36557;53.572;10.170;2023-11-21T12:40:14;2.88;;;1.85;;
50605;SDS011;36557;53.572;10.170;2023-11-21T12:42:41;3.67;;;1.80;;
50605;SDS011;36557;53.572;10.170;2023-11-21T12:47:35;2.53;;;2.00;;
50605;SDS011;36557;53.572;10.170;2023-11-21T12:50:02;3.33;;;1.80;;
50605;SDS011;36557;53.572;10.170;2023-11-21T12:52:30;2.35;;;1.80;;
50605;SDS011;36557;53.572;10.170;2023-11-21T12:54:57;2.50;;;1.52;;
50605;SDS011;36557;53.572;10.170;2023-11-21T12:57:26;4.55;;;1.80;;
50605;SDS011;36557;53.572;10.170;2023-11-21T12:59:56;2.95;;;1.48;;
50605;SDS011;36557;53.572;10.170;2023-11-21T13:02:25;2.80;;;1.80;;
50605;SDS011;36557;53.572;10.170;2023-11-21T13:04:52;2.75;;;1.73;;
50605;SDS011;36557;53.572;10.170;2023-11-21T13:07:19;2.17;;;1.50;;
50605;SDS011;36557;53.572;10.170;2023-11-21T13:09:45;4.20;;;1.90;;
50605;SDS011;36557;53.572;10.170;2023-11-21T13:12:11;3.10;;;1.83;;
50605;SDS011;36557;53.572;10.170;2023-11-21T13:14:39;3.25;;;1.77;;
50605;SDS011;36557;53.572;10.170;2023-11-21T13:17:05;2.80;;;1.75;;
50605;SDS011;36557;53.572;10.170;2023-11-21T13:19:31;5.63;;;1.80;;
50605;SDS011;36557;53.572;10.170;2023-11-21T13:21:56;3.33;;;1.60;;
50605;SDS011;36557;53.572;10.170;2023-11-21T13:24:23;4.35;;;2.13;;
50605;SDS011;36557;53.572;10.170;2023-11-21T13:26:51;4.88;;;1.85;;
50605;SDS011;36557;53.572;10.170;2023-11-21T13:29:16;3.03;;;1.88;;
50605;SDS011;36557;53.572;10.170;2023-11-21T13:31:42;3.75;;;1.70;;
50605;SDS011;36557;53.572;10.170;2023-11-21T13:34:08;2.42;;;1.60;;
50605;SDS011;36557;53.572;10.170;2023-11-21T13:36:34;3.13;;;1.77;;
50605;SDS011;36557;53.572;10.170;2023-11-21T13:39:00;2.53;;;1.63;;
50605;SDS011;36557;53.572;10.170;2023-11-21T13:41:32;3.28;;;1.58;;
50605;SDS011;36557;53.572;10.170;2023-11-21T13:43:59;3.80;;;2.00;;
50605;SDS011;36557;53.572;10.170;2023-11-21T13:46:41;3.83;;;1.65;;
50605;SDS011;36557;53.572;10.170;2023-11-21T13:49:07;2.75;;;1.75;;
50605;SDS011;36557;53.572;10.170;2023-11-21T13:51:35;3.55;;;1.70;;
50605;SDS011;36557;53.572;10.170;2023-11-21T13:54:09;2.53;;;1.60;;
50605;SDS011;36557;53.572;10.170;2023-11-21T13:56:35;4.63;;;1.92;;
50605;SDS011;36557;53.572;10.170;2023-11-21T13:59:02;2.00;;;1.35;;
50605;SDS011;36557;53.572;10.170;2023-11-21T14:01:50;2.83;;;1.40;;
50605;SDS011;36557;53.572;10.170;2023-11-21T14:04:20;3.42;;;1.50;;
50605;SDS011;36557;53.572;10.170;2023-11-21T14:07:07;2.28;;;1.55;;
50605;SDS011;36557;53.572;10.170;2023-11-21T14:09:56;3.70;;;1.75;;
50605;SDS011;36557;53.572;10.170;2023-11-21T14:12:23;3.85;;;1.70;;
50605;SDS011;36557;53.572;10.170;2023-11-21T14:14:49;4.13;;;1.60;;
50605;SDS011;36557;53.572;10.170;2023-11-21T14:17:15;4.82;;;1.48;;
50605;SDS011;36557;53.572;10.170;2023-11-21T14:19:41;3.13;;;1.60;;
50605;SDS011;36557;53.572;10.170;2023-11-21T14:22:08;3.42;;;1.73;;
50605;SDS011;36557;53.572;10.170;2023-11-21T14:24:36;4.38;;;1.80;;
50605;SDS011;36557;53.572;10.170;2023-11-21T14:27:02;2.70;;;1.75;;
50605;SDS011;36557;53.572;10.170;2023-11-21T14:29:31;2.72;;;1.88;;
50605;SDS011;36557;53.572;10.170;2023-11-21T14:32:01;2.65;;;1.60;;
50605;SDS011;36557;53.572;10.170;2023-11-21T14:34:27;4.50;;;1.50;;
50605;SDS011;36557;53.572;10.170;2023-11-21T14:36:53;2.85;;;2.05;;
50605;SDS011;36557;53.572;10.170;2023-11-21T14:39:19;2.63;;;1.58;;
50605;SDS011;36557;53.572;10.170;2023-11-21T14:41:49;2.80;;;1.45;;
50605;SDS011;36557;53.572;10.170;2023-11-21T14:44:15;4.65;;;1.50;;
50605;SDS011;36557;53.572;10.170;2023-11-21T14:46:41;2.35;;;1.40;;
50605;SDS011;36557;53.572;10.170;2023-11-21T14:49:11;1.90;;;1.30;;
50605;SDS011;36557;53.572;10.170;2023-11-21T14:51:51;2.13;;;1.05;;
50605;SDS011;36557;53.572;10.170;2023-11-21T14:54:48;1.80;;;1.20;;
50605;SDS011;36557;53.572;10.170;2023-11-21T14:57:25;2.45;;;1.20;;
50605;SDS011;36557;53.572;10.170;2023-11-21T14:59:52;2.03;;;1.10;;
50605;SDS011;36557;53.572;10.170;2023-11-21T15:02:22;2.03;;;1.20;;
50605;SDS011;36557;53.572;10.170;2023-11-21T15:05:08;1.80;;;1.20;;